sensor_id;sensor_type;location;lat;lon;timestamp;P1;durP1;ratioP1;P2;durP2;ratioP2
81320;SDS011;70785;52.570;5.638;2024-03-08T00:02:05;26.15;;;12.82;;
81320;SDS011;70785;52.570;5.638;2024-03-08T00:04:32;21.83;;;11.15;;
81320;SDS011;70785;52.570;5.638;2024-03-08T00:06:58;25.00;;;12.45;;
81320;SDS011;70785;52.570;5.638;2024-03-08T00:09:24;25.05;;;13.40;;
81320;SDS011;70785;52.570;5.638;2024-03-08T00:11:52;25.45;;;10.55;;
81320;SDS011;70785;52.570;5.638;2024-03-08T00:14:19;30.38;;;11.98;;
81320;SDS011;70785;52.570;5.638;2024-03-08T00:16:45;24.80;;;11.98;;
81320;SDS011;70785;52.570;5.638;2024-03-08T00:19:11;22.30;;;12.05;;
81320;SDS011;70785;52.570;5.638;2024-03-08T00:21:37;29.10;;;11.80;;
81320;SDS011;70785;52.570;5.638;2024-03-08T00:24:04;28.27;;;11.98;;
81320;SDS011;70785;52.570;5.638;2024-03-08T00:26:30;21.80;;;11.40;;
81320;SDS011;70785;52.570;5.638;2024-03-08T00:28:56;25.35;;;11.70;;
81320;SDS011;70785;52.570;5.638;2024-03-08T00:31:22;24.88;;;12.40;;
81320;SDS011;70785;52.570;5.638;2024-03-08T00:33:48;26.10;;;10.85;;
81320;SDS011;70785;52.570;5.638;2024-03-08T00:36:14;25.77;;;13.35;;
81320;SDS011;70785;52.570;5.638;2024-03-08T00:38:40;22.48;;;12.27;;
81320;SDS011;70785;52.570;5.638;2024-03-08T00:41:06;25.88;;;12.25;;
81320;SDS011;70785;52.570;5.638;2024-03-08T00:43:33;25.08;;;12.35;;
81320;SDS011;70785;52.570;5.638;2024-03-08T00:45:59;25.30;;;11.80;;
81320;SDS011;70785;52.570;5.638;2024-03-08T00:48:26;24.95;;;12.13;;
81320;SDS011;70785;52.570;5.638;2024-03-08T00:50:53;26.92;;;12.13;;
81320;SDS011;70785;52.570;5.638;2024-03-08T00:53:19;25.35;;;12.18;;
81320;SDS011;70785;52.570;5.638;2024-03-08T00:55:45;27.02;;;12.75;;
81320;SDS011;70785;52.570;5.638;2024-03-08T00:58:12;26.67;;;12.55;;
81320;SDS011;70785;52.570;5.638;2024-03-08T01:00:38;24.25;;;13.13;;
81320;SDS011;70785;52.570;5.638;2024-03-08T01:03:05;24.95;;;12.85;;
81320;SDS011;70785;52.570;5.638;2024-03-08T01:05:32;24.27;;;11.23;;
81320;SDS011;70785;52.570;5.638;2024-03-08T01:08:00;24.73;;;10.57;;
81320;SDS011;70785;52.570;5.638;2024-03-08T01:10:28;21.23;;;11.02;;
81320;SDS011;70785;52.570;5.638;2024-03-08T01:12:54;23.70;;;11.48;;
81320;SDS011;70785;52.570;5.638;2024-03-08T01:15:22;22.95;;;10.77;;
81320;SDS011;70785;52.570;5.638;2024-03-08T01:17:49;22.70;;;11.75;;
81320;SDS011;70785;52.570;5.638;2024-03-08T01:20:15;24.83;;;11.02;;
81320;SDS011;70785;52.570;5.638;2024-03-08T01:22:41;22.65;;;11.15;;
81320;SDS011;70785;52.570;5.638;2024-03-08T01:25:08;23.45;;;11.20;;
81320;SDS011;70785;52.570;5.638;2024-03-08T01:27:34;23.75;;;11.02;;
81320;SDS011;70785;52.570;5.638;2024-03-08T01:30:02;26.67;;;11.07;;
81320;SDS011;70785;52.570;5.638;2024-03-08T01:32:29;27.27;;;10.82;;
81320;SDS011;70785;52.570;5.638;2024-03-08T01:34:55;25.70;;;10.68;;
81320;SDS011;70785;52.570;5.638;2024-03-08T01:37:21;26.15;;;10.52;;
81320;SDS011;70785;52.570;5.638;2024-03-08T01:39:47;25.75;;;11.82;;
81320;SDS011;70785;52.570;5.638;2024-03-08T01:42:13;21.73;;;10.55;;
81320;SDS011;70785;52.570;5.638;2024-03-08T01:44:43;26.05;;;11.25;;
81320;SDS011;70785;52.570;5.638;2024-03-08T01:47:10;24.30;;;11.90;;
81320;SDS011;70785;52.570;5.638;2024-03-08T01:49:37;19.90;;;9.35;;
81320;SDS011;70785;52.570;5.638;2024-03-08T01:52:03;22.25;;;11.88;;
81320;SDS011;70785;52.570;5.638;2024-03-08T01:54:30;28.83;;;13.65;;
81320;SDS011;70785;52.570;5.638;2024-03-08T01:56:57;24.67;;;11.32;;
81320;SDS011;70785;52.570;5.638;2024-03-08T01:59:24;29.75;;;12.32;;
81320;SDS011;70785;52.570;5.638;2024-03-08T02:01:53;27.65;;;13.07;;
81320;SDS011;70785;52.570;5.638;2024-03-08T02:04:21;26.85;;;12.35;;
81320;SDS011;70785;52.570;5.638;2024-03-08T02:06:47;25.58;;;11.95;;
81320;SDS011;70785;52.570;5.638;2024-03-08T02:09:14;28.17;;;13.40;;
81320;SDS011;70785;52.570;5.638;2024-03-08T02:11:41;25.70;;;12.18;;
81320;SDS011;70785;52.570;5.638;2024-03-08T02:14:07;24.77;;;11.90;;
81320;SDS011;70785;52.570;5.638;2024-03-08T02:16:33;26.52;;;13.82;;
81320;SDS011;70785;52.570;5.638;2024-03-08T02:18:59;22.23;;;11.23;;
81320;SDS011;70785;52.570;5.638;2024-03-08T02:21:25;22.50;;;11.77;;
81320;SDS011;70785;52.570;5.638;2024-03-08T02:23:52;23.73;;;10.93;;
81320;SDS011;70785;52.570;5.638;2024-03-08T02:26:18;26.17;;;11.13;;
81320;SDS011;70785;52.570;5.638;2024-03-08T02:28:44;23.10;;;10.63;;
81320;SDS011;70785;52.570;5.638;2024-03-08T02:31:11;27.75;;;11.80;;
81320;SDS011;70785;52.570;5.638;2024-03-08T02:33:37;26.17;;;12.23;;
81320;SDS011;70785;52.570;5.638;2024-03-08T02:36:03;27.08;;;13.35;;
81320;SDS011;70785;52.570;5.638;2024-03-08T02:38:31;24.13;;;11.88;;
81320;SDS011;70785;52.570;5.638;2024-03-08T02:40:58;26.35;;;11.90;;
81320;SDS011;70785;52.570;5.638;2024-03-08T02:43:24;26.50;;;12.15;;
81320;SDS011;70785;52.570;5.638;2024-03-08T02:45:51;22.73;;;12.77;;
81320;SDS011;70785;52.570;5.638;2024-03-08T02:48:20;22.83;;;11.57;;
81320;SDS011;70785;52.570;5.638;2024-03-08T02:50:47;24.05;;;11.75;;
81320;SDS011;70785;52.570;5.638;2024-03-08T02:53:13;22.48;;;11.30;;
81320;SDS011;70785;52.570;5.638;2024-03-08T02:55:40;24.60;;;12.57;;
81320;SDS011;70785;52.570;5.638;2024-03-08T02:58:07;29.75;;;13.10;;
81320;SDS011;70785;52.570;5.638;2024-03-08T03:00:36;26.13;;;13.35;;
81320;SDS011;70785;52.570;5.638;2024-03-08T03:03:04;23.63;;;13.00;;
81320;SDS011;70785;52.570;5.638;2024-03-08T03:05:31;24.55;;;11.30;;
81320;SDS011;70785;52.570;5.638;2024-03-08T03:07:57;25.23;;;12.48;;
81320;SDS011;70785;52.570;5.638;2024-03-08T03:10:23;26.20;;;12.65;;
81320;SDS011;70785;52.570;5.638;2024-03-08T03:12:50;24.40;;;11.48;;
81320;SDS011;70785;52.570;5.638;2024-03-08T03:15:16;23.15;;;11.40;;
81320;SDS011;70785;52.570;5.638;2024-03-08T03:17:46;29.10;;;13.73;;
81320;SDS011;70785;52.570;5.638;2024-03-08T03:20:13;21.23;;;10.48;;
81320;SDS011;70785;52.570;5.638;2024-03-08T03:22:40;24.90;;;11.73;;
81320;SDS011;70785;52.570;5.638;2024-03-08T03:25:09;26.15;;;11.65;;
81320;SDS011;70785;52.570;5.638;2024-03-08T03:27:35;22.70;;;13.02;;
81320;SDS011;70785;52.570;5.638;2024-03-08T03:30:03;23.92;;;12.77;;
81320;SDS011;70785;52.570;5.638;2024-03-08T03:32:49;26.27;;;11.60;;
81320;SDS011;70785;52.570;5.638;2024-03-08T03:35:19;27.02;;;12.35;;
81320;SDS011;70785;52.570;5.638;2024-03-08T03:37:49;27.48;;;12.35;;
81320;SDS011;70785;52.570;5.638;2024-03-08T03:40:32;23.65;;;13.00;;
81320;SDS011;70785;52.570;5.638;2024-03-08T03:43:02;27.77;;;12.50;;
81320;SDS011;70785;52.570;5.638;2024-03-08T03:45:29;24.77;;;12.07;;
81320;SDS011;70785;52.570;5.638;2024-03-08T03:47:59;24.77;;;12.18;;
81320;SDS011;70785;52.570;5.638;2024-03-08T03:50:26;25.13;;;11.52;;
81320;SDS011;70785;52.570;5.638;2024-03-08T03:52:52;23.85;;;12.85;;
81320;SDS011;70785;52.570;5.638;2024-03-08T03:55:18;26.08;;;12.82;;
81320;SDS011;70785;52.570;5.638;2024-03-08T03:57:45;25.40;;;12.73;;
81320;SDS011;70785;52.570;5.638;2024-03-08T04:00:11;29.15;;;12.63;;
81320;SDS011;70785;52.570;5.638;2024-03-08T04:02:41;26.88;;;13.20;;
81320;SDS011;70785;52.570;5.638;2024-03-08T04:05:08;27.00;;;12.05;;
81320;SDS011;70785;52.570;5.638;2024-03-08T04:07:35;25.23;;;13.30;;
81320;SDS011;70785;52.570;5.638;2024-03-08T04:10:02;22.88;;;12.82;;
81320;SDS011;70785;52.570;5.638;2024-03-08T04:12:29;28.00;;;11.82;;
81320;SDS011;70785;52.570;5.638;2024-03-08T04:14:55;26.60;;;13.45;;
81320;SDS011;70785;52.570;5.638;2024-03-08T04:17:22;28.40;;;14.38;;
81320;SDS011;70785;52.570;5.638;2024-03-08T04:19:49;28.33;;;12.63;;
81320;SDS011;70785;52.570;5.638;2024-03-08T04:22:16;30.40;;;14.75;;
81320;SDS011;70785;52.570;5.638;2024-03-08T04:24:46;26.17;;;12.57;;
81320;SDS011;70785;52.570;5.638;2024-03-08T04:27:12;27.58;;;12.88;;
81320;SDS011;70785;52.570;5.638;2024-03-08T04:29:40;24.00;;;13.15;;
81320;SDS011;70785;52.570;5.638;2024-03-08T04:32:07;29.35;;;13.48;;
81320;SDS011;70785;52.570;5.638;2024-03-08T04:34:34;27.08;;;13.90;;
81320;SDS011;70785;52.570;5.638;2024-03-08T04:37:01;31.67;;;13.32;;
81320;SDS011;70785;52.570;5.638;2024-03-08T04:39:27;26.55;;;13.80;;
81320;SDS011;70785;52.570;5.638;2024-03-08T04:41:58;24.15;;;11.93;;
81320;SDS011;70785;52.570;5.638;2024-03-08T04:44:29;28.73;;;13.07;;
81320;SDS011;70785;52.570;5.638;2024-03-08T04:46:55;28.90;;;13.93;;
81320;SDS011;70785;52.570;5.638;2024-03-08T04:49:22;23.77;;;12.48;;
81320;SDS011;70785;52.570;5.638;2024-03-08T04:51:48;27.05;;;12.73;;
81320;SDS011;70785;52.570;5.638;2024-03-08T04:54:14;24.23;;;12.15;;
81320;SDS011;70785;52.570;5.638;2024-03-08T04:56:40;28.77;;;12.75;;
81320;SDS011;70785;52.570;5.638;2024-03-08T04:59:07;28.95;;;14.18;;
81320;SDS011;70785;52.570;5.638;2024-03-08T05:01:34;24.80;;;12.13;;
81320;SDS011;70785;52.570;5.638;2024-03-08T05:04:03;26.25;;;13.48;;
81320;SDS011;70785;52.570;5.638;2024-03-08T05:06:31;28.42;;;14.38;;
81320;SDS011;70785;52.570;5.638;2024-03-08T05:08:57;26.52;;;13.93;;
81320;SDS011;70785;52.570;5.638;2024-03-08T05:11:23;27.48;;;13.00;;
81320;SDS011;70785;52.570;5.638;2024-03-08T05:13:49;27.30;;;14.10;;
81320;SDS011;70785;52.570;5.638;2024-03-08T05:16:15;29.63;;;14.45;;
81320;SDS011;70785;52.570;5.638;2024-03-08T05:18:41;26.65;;;13.45;;
81320;SDS011;70785;52.570;5.638;2024-03-08T05:21:07;29.52;;;13.20;;
81320;SDS011;70785;52.570;5.638;2024-03-08T05:23:35;28.98;;;13.65;;
81320;SDS011;70785;52.570;5.638;2024-03-08T05:26:01;31.13;;;15.55;;
81320;SDS011;70785;52.570;5.638;2024-03-08T05:28:30;26.42;;;12.60;;
81320;SDS011;70785;52.570;5.638;2024-03-08T05:30:56;26.52;;;13.15;;
81320;SDS011;70785;52.570;5.638;2024-03-08T05:33:22;27.17;;;12.68;;
81320;SDS011;70785;52.570;5.638;2024-03-08T05:35:49;29.92;;;13.90;;
81320;SDS011;70785;52.570;5.638;2024-03-08T05:38:15;28.77;;;14.48;;
81320;SDS011;70785;52.570;5.638;2024-03-08T05:40:41;27.52;;;13.02;;
81320;SDS011;70785;52.570;5.638;2024-03-08T05:43:08;26.90;;;13.75;;
81320;SDS011;70785;52.570;5.638;2024-03-08T05:45:34;25.20;;;13.40;;
81320;SDS011;70785;52.570;5.638;2024-03-08T05:48:01;27.83;;;14.07;;
81320;SDS011;70785;52.570;5.638;2024-03-08T05:50:27;29.40;;;14.20;;
81320;SDS011;70785;52.570;5.638;2024-03-08T05:52:53;31.88;;;14.20;;
81320;SDS011;70785;52.570;5.638;2024-03-08T05:55:19;27.15;;;13.70;;
81320;SDS011;70785;52.570;5.638;2024-03-08T05:57:46;31.95;;;15.13;;
81320;SDS011;70785;52.570;5.638;2024-03-08T06:00:14;34.10;;;14.40;;
81320;SDS011;70785;52.570;5.638;2024-03-08T06:02:41;28.33;;;14.65;;
81320;SDS011;70785;52.570;5.638;2024-03-08T06:05:08;29.23;;;14.00;;
81320;SDS011;70785;52.570;5.638;2024-03-08T06:07:36;26.70;;;14.02;;
81320;SDS011;70785;52.570;5.638;2024-03-08T06:10:07;26.85;;;14.23;;
81320;SDS011;70785;52.570;5.638;2024-03-08T06:12:35;29.48;;;13.93;;
81320;SDS011;70785;52.570;5.638;2024-03-08T06:15:10;30.27;;;14.52;;
81320;SDS011;70785;52.570;5.638;2024-03-08T06:17:40;26.45;;;14.57;;
81320;SDS011;70785;52.570;5.638;2024-03-08T06:20:07;31.95;;;13.18;;
81320;SDS011;70785;52.570;5.638;2024-03-08T06:22:37;27.95;;;14.80;;
81320;SDS011;70785;52.570;5.638;2024-03-08T06:25:06;28.20;;;13.07;;
81320;SDS011;70785;52.570;5.638;2024-03-08T06:27:42;31.33;;;14.55;;
81320;SDS011;70785;52.570;5.638;2024-03-08T06:30:09;28.10;;;14.82;;
81320;SDS011;70785;52.570;5.638;2024-03-08T06:32:36;27.98;;;14.70;;
81320;SDS011;70785;52.570;5.638;2024-03-08T06:35:04;30.33;;;13.75;;
81320;SDS011;70785;52.570;5.638;2024-03-08T06:37:35;29.13;;;14.93;;
81320;SDS011;70785;52.570;5.638;2024-03-08T06:40:02;32.55;;;13.77;;
81320;SDS011;70785;52.570;5.638;2024-03-08T06:42:33;32.08;;;15.07;;
81320;SDS011;70785;52.570;5.638;2024-03-08T06:45:01;26.35;;;15.65;;
81320;SDS011;70785;52.570;5.638;2024-03-08T06:47:30;25.10;;;13.60;;
81320;SDS011;70785;52.570;5.638;2024-03-08T06:49:57;31.00;;;15.60;;
81320;SDS011;70785;52.570;5.638;2024-03-08T06:52:24;29.65;;;16.08;;
81320;SDS011;70785;52.570;5.638;2024-03-08T06:54:50;30.88;;;15.15;;
81320;SDS011;70785;52.570;5.638;2024-03-08T06:57:18;28.02;;;15.57;;
81320;SDS011;70785;52.570;5.638;2024-03-08T06:59:47;34.15;;;15.35;;
81320;SDS011;70785;52.570;5.638;2024-03-08T07:02:14;28.98;;;14.07;;
81320;SDS011;70785;52.570;5.638;2024-03-08T07:04:40;29.67;;;15.07;;
81320;SDS011;70785;52.570;5.638;2024-03-08T07:07:06;30.60;;;14.15;;
81320;SDS011;70785;52.570;5.638;2024-03-08T07:09:36;27.13;;;14.15;;
81320;SDS011;70785;52.570;5.638;2024-03-08T07:12:02;30.10;;;14.20;;
81320;SDS011;70785;52.570;5.638;2024-03-08T07:14:29;28.60;;;13.75;;
81320;SDS011;70785;52.570;5.638;2024-03-08T07:16:56;26.58;;;12.55;;
81320;SDS011;70785;52.570;5.638;2024-03-08T07:19:22;25.58;;;12.52;;
81320;SDS011;70785;52.570;5.638;2024-03-08T07:21:49;28.25;;;13.38;;
81320;SDS011;70785;52.570;5.638;2024-03-08T07:24:15;28.38;;;13.57;;
81320;SDS011;70785;52.570;5.638;2024-03-08T07:27:05;29.30;;;14.25;;
81320;SDS011;70785;52.570;5.638;2024-03-08T07:29:32;27.20;;;14.13;;
81320;SDS011;70785;52.570;5.638;2024-03-08T07:31:59;25.05;;;14.38;;
81320;SDS011;70785;52.570;5.638;2024-03-08T07:34:28;28.02;;;14.30;;
81320;SDS011;70785;52.570;5.638;2024-03-08T07:36:59;28.70;;;14.48;;
81320;SDS011;70785;52.570;5.638;2024-03-08T07:39:25;27.23;;;13.35;;
81320;SDS011;70785;52.570;5.638;2024-03-08T07:41:52;30.20;;;14.23;;
81320;SDS011;70785;52.570;5.638;2024-03-08T07:44:18;23.63;;;12.65;;
81320;SDS011;70785;52.570;5.638;2024-03-08T07:46:44;30.05;;;15.40;;
81320;SDS011;70785;52.570;5.638;2024-03-08T07:49:10;29.20;;;15.20;;
81320;SDS011;70785;52.570;5.638;2024-03-08T07:51:37;26.55;;;13.48;;
81320;SDS011;70785;52.570;5.638;2024-03-08T07:54:04;29.30;;;14.43;;
81320;SDS011;70785;52.570;5.638;2024-03-08T07:56:30;30.75;;;16.08;;
81320;SDS011;70785;52.570;5.638;2024-03-08T07:58:56;28.02;;;15.57;;
81320;SDS011;70785;52.570;5.638;2024-03-08T08:01:22;31.83;;;14.57;;
81320;SDS011;70785;52.570;5.638;2024-03-08T08:03:49;26.77;;;14.70;;
81320;SDS011;70785;52.570;5.638;2024-03-08T08:06:15;27.50;;;13.95;;
81320;SDS011;70785;52.570;5.638;2024-03-08T08:08:42;28.38;;;15.25;;
81320;SDS011;70785;52.570;5.638;2024-03-08T08:11:08;27.05;;;15.20;;
81320;SDS011;70785;52.570;5.638;2024-03-08T08:13:35;30.27;;;15.73;;
81320;SDS011;70785;52.570;5.638;2024-03-08T08:16:02;28.00;;;15.23;;
81320;SDS011;70785;52.570;5.638;2024-03-08T08:18:29;26.73;;;14.02;;
81320;SDS011;70785;52.570;5.638;2024-03-08T08:20:55;30.02;;;14.07;;
81320;SDS011;70785;52.570;5.638;2024-03-08T08:23:21;24.83;;;14.52;;
81320;SDS011;70785;52.570;5.638;2024-03-08T08:25:48;28.63;;;14.02;;
81320;SDS011;70785;52.570;5.638;2024-03-08T08:28:16;26.58;;;15.02;;
81320;SDS011;70785;52.570;5.638;2024-03-08T08:30:44;28.05;;;14.52;;
81320;SDS011;70785;52.570;5.638;2024-03-08T08:33:10;27.25;;;15.13;;
81320;SDS011;70785;52.570;5.638;2024-03-08T08:35:37;24.20;;;13.73;;
81320;SDS011;70785;52.570;5.638;2024-03-08T08:38:05;26.15;;;13.00;;
81320;SDS011;70785;52.570;5.638;2024-03-08T08:40:33;27.52;;;14.82;;
81320;SDS011;70785;52.570;5.638;2024-03-08T08:43:01;24.73;;;14.07;;
81320;SDS011;70785;52.570;5.638;2024-03-08T08:45:30;23.83;;;13.20;;
81320;SDS011;70785;52.570;5.638;2024-03-08T08:47:56;22.75;;;13.65;;
81320;SDS011;70785;52.570;5.638;2024-03-08T08:50:25;27.38;;;14.38;;
81320;SDS011;70785;52.570;5.638;2024-03-08T08:52:54;27.25;;;16.25;;
81320;SDS011;70785;52.570;5.638;2024-03-08T08:55:20;31.48;;;14.93;;
81320;SDS011;70785;52.570;5.638;2024-03-08T08:57:50;21.25;;;13.63;;
81320;SDS011;70785;52.570;5.638;2024-03-08T09:00:18;27.00;;;12.48;;
81320;SDS011;70785;52.570;5.638;2024-03-08T09:02:45;23.02;;;12.07;;
81320;SDS011;70785;52.570;5.638;2024-03-08T09:05:12;26.98;;;14.98;;
81320;SDS011;70785;52.570;5.638;2024-03-08T09:07:43;25.65;;;14.30;;
81320;SDS011;70785;52.570;5.638;2024-03-08T09:10:10;24.88;;;14.45;;
81320;SDS011;70785;52.570;5.638;2024-03-08T09:12:38;22.55;;;13.57;;
81320;SDS011;70785;52.570;5.638;2024-03-08T09:15:05;25.73;;;12.82;;
81320;SDS011;70785;52.570;5.638;2024-03-08T09:17:34;29.67;;;13.77;;
81320;SDS011;70785;52.570;5.638;2024-03-08T09:20:00;23.63;;;12.73;;
81320;SDS011;70785;52.570;5.638;2024-03-08T09:22:29;26.30;;;14.75;;
81320;SDS011;70785;52.570;5.638;2024-03-08T09:24:56;23.50;;;14.05;;
81320;SDS011;70785;52.570;5.638;2024-03-08T09:27:23;25.48;;;15.20;;
81320;SDS011;70785;52.570;5.638;2024-03-08T09:29:49;27.05;;;14.45;;
81320;SDS011;70785;52.570;5.638;2024-03-08T09:32:16;26.10;;;14.13;;
81320;SDS011;70785;52.570;5.638;2024-03-08T09:34:42;23.95;;;12.68;;
81320;SDS011;70785;52.570;5.638;2024-03-08T09:37:09;31.05;;;15.32;;
81320;SDS011;70785;52.570;5.638;2024-03-08T09:39:35;26.65;;;13.60;;
81320;SDS011;70785;52.570;5.638;2024-03-08T09:42:01;27.88;;;15.73;;
81320;SDS011;70785;52.570;5.638;2024-03-08T09:44:28;31.25;;;13.75;;
81320;SDS011;70785;52.570;5.638;2024-03-08T09:47:00;26.77;;;13.25;;
81320;SDS011;70785;52.570;5.638;2024-03-08T09:49:27;27.85;;;14.40;;
81320;SDS011;70785;52.570;5.638;2024-03-08T09:51:54;25.20;;;13.68;;
81320;SDS011;70785;52.570;5.638;2024-03-08T09:54:21;26.38;;;14.02;;
81320;SDS011;70785;52.570;5.638;2024-03-08T09:56:48;29.15;;;15.80;;
81320;SDS011;70785;52.570;5.638;2024-03-08T09:59:16;25.52;;;13.90;;
81320;SDS011;70785;52.570;5.638;2024-03-08T10:02:06;25.20;;;13.95;;
81320;SDS011;70785;52.570;5.638;2024-03-08T10:04:39;28.50;;;14.98;;
81320;SDS011;70785;52.570;5.638;2024-03-08T10:07:07;29.60;;;14.77;;
81320;SDS011;70785;52.570;5.638;2024-03-08T10:09:34;24.55;;;12.30;;
81320;SDS011;70785;52.570;5.638;2024-03-08T10:12:00;25.88;;;13.98;;
81320;SDS011;70785;52.570;5.638;2024-03-08T10:14:27;22.08;;;12.68;;
81320;SDS011;70785;52.570;5.638;2024-03-08T10:16:54;24.48;;;14.75;;
81320;SDS011;70785;52.570;5.638;2024-03-08T10:19:25;25.30;;;13.57;;
81320;SDS011;70785;52.570;5.638;2024-03-08T10:21:52;28.35;;;13.80;;
81320;SDS011;70785;52.570;5.638;2024-03-08T10:24:23;26.70;;;13.77;;
81320;SDS011;70785;52.570;5.638;2024-03-08T10:26:52;28.13;;;13.18;;
81320;SDS011;70785;52.570;5.638;2024-03-08T10:29:19;25.15;;;15.18;;
81320;SDS011;70785;52.570;5.638;2024-03-08T10:31:46;24.50;;;14.15;;
81320;SDS011;70785;52.570;5.638;2024-03-08T10:34:12;24.90;;;12.77;;
81320;SDS011;70785;52.570;5.638;2024-03-08T10:36:39;27.58;;;14.07;;
81320;SDS011;70785;52.570;5.638;2024-03-08T10:39:08;24.02;;;13.45;;
81320;SDS011;70785;52.570;5.638;2024-03-08T10:41:53;25.88;;;14.68;;
81320;SDS011;70785;52.570;5.638;2024-03-08T10:47:03;23.20;;;13.88;;
81320;SDS011;70785;52.570;5.638;2024-03-08T10:52:30;25.20;;;13.10;;
81320;SDS011;70785;52.570;5.638;2024-03-08T10:54:57;23.95;;;13.10;;
81320;SDS011;70785;52.570;5.638;2024-03-08T10:57:26;25.80;;;15.82;;
81320;SDS011;70785;52.570;5.638;2024-03-08T10:59:53;23.10;;;14.10;;
81320;SDS011;70785;52.570;5.638;2024-03-08T11:02:20;26.73;;;13.25;;
81320;SDS011;70785;52.570;5.638;2024-03-08T11:04:47;24.52;;;13.30;;
81320;SDS011;70785;52.570;5.638;2024-03-08T11:07:15;24.17;;;13.45;;
81320;SDS011;70785;52.570;5.638;2024-03-08T11:09:47;25.05;;;14.52;;
81320;SDS011;70785;52.570;5.638;2024-03-08T11:14:49;23.48;;;13.90;;
81320;SDS011;70785;52.570;5.638;2024-03-08T11:17:26;25.33;;;15.63;;
81320;SDS011;70785;52.570;5.638;2024-03-08T11:20:00;25.80;;;13.85;;
81320;SDS011;70785;52.570;5.638;2024-03-08T11:22:32;25.30;;;14.15;;
81320;SDS011;70785;52.570;5.638;2024-03-08T11:25:01;24.08;;;13.30;;
81320;SDS011;70785;52.570;5.638;2024-03-08T11:27:29;24.80;;;12.35;;
81320;SDS011;70785;52.570;5.638;2024-03-08T11:30:14;26.70;;;14.35;;
81320;SDS011;70785;52.570;5.638;2024-03-08T11:32:50;25.35;;;13.07;;
81320;SDS011;70785;52.570;5.638;2024-03-08T11:35:19;24.80;;;13.32;;
81320;SDS011;70785;52.570;5.638;2024-03-08T11:37:46;25.85;;;14.18;;
81320;SDS011;70785;52.570;5.638;2024-03-08T11:40:13;24.13;;;12.93;;
81320;SDS011;70785;52.570;5.638;2024-03-08T11:42:47;26.30;;;15.00;;
81320;SDS011;70785;52.570;5.638;2024-03-08T11:45:15;24.27;;;13.02;;
81320;SDS011;70785;52.570;5.638;2024-03-08T11:47:43;23.98;;;12.18;;
81320;SDS011;70785;52.570;5.638;2024-03-08T11:50:12;24.38;;;13.43;;
81320;SDS011;70785;52.570;5.638;2024-03-08T11:52:39;22.02;;;11.98;;
81320;SDS011;70785;52.570;5.638;2024-03-08T11:55:05;25.00;;;14.63;;
81320;SDS011;70785;52.570;5.638;2024-03-08T11:57:32;23.38;;;13.50;;
81320;SDS011;70785;52.570;5.638;2024-03-08T11:59:59;24.48;;;13.02;;
81320;SDS011;70785;52.570;5.638;2024-03-08T12:02:34;24.70;;;13.23;;
81320;SDS011;70785;52.570;5.638;2024-03-08T12:05:06;24.35;;;14.38;;
81320;SDS011;70785;52.570;5.638;2024-03-08T12:07:35;26.63;;;13.73;;
81320;SDS011;70785;52.570;5.638;2024-03-08T12:10:14;26.77;;;15.15;;
81320;SDS011;70785;52.570;5.638;2024-03-08T12:12:47;25.42;;;13.18;;
81320;SDS011;70785;52.570;5.638;2024-03-08T12:15:17;23.38;;;14.50;;
81320;SDS011;70785;52.570;5.638;2024-03-08T12:17:49;24.38;;;13.88;;
81320;SDS011;70785;52.570;5.638;2024-03-08T12:22:44;25.67;;;15.73;;
81320;SDS011;70785;52.570;5.638;2024-03-08T12:25:11;24.65;;;12.80;;
81320;SDS011;70785;52.570;5.638;2024-03-08T12:27:41;24.95;;;14.10;;
81320;SDS011;70785;52.570;5.638;2024-03-08T12:32:51;23.25;;;13.05;;
81320;SDS011;70785;52.570;5.638;2024-03-08T12:35:23;27.05;;;15.02;;
81320;SDS011;70785;52.570;5.638;2024-03-08T12:37:55;23.73;;;13.18;;
81320;SDS011;70785;52.570;5.638;2024-03-08T12:40:29;23.83;;;12.80;;
81320;SDS011;70785;52.570;5.638;2024-03-08T12:42:57;23.92;;;14.52;;
81320;SDS011;70785;52.570;5.638;2024-03-08T12:45:24;25.55;;;14.05;;
81320;SDS011;70785;52.570;5.638;2024-03-08T12:47:51;23.02;;;13.43;;
81320;SDS011;70785;52.570;5.638;2024-03-08T12:50:19;25.08;;;14.80;;
81320;SDS011;70785;52.570;5.638;2024-03-08T12:52:46;23.27;;;13.02;;
81320;SDS011;70785;52.570;5.638;2024-03-08T12:55:13;25.15;;;13.40;;
81320;SDS011;70785;52.570;5.638;2024-03-08T12:57:39;22.73;;;14.00;;
81320;SDS011;70785;52.570;5.638;2024-03-08T13:00:06;21.63;;;12.18;;
81320;SDS011;70785;52.570;5.638;2024-03-08T13:02:39;23.80;;;12.57;;
81320;SDS011;70785;52.570;5.638;2024-03-08T13:05:06;20.85;;;12.82;;
81320;SDS011;70785;52.570;5.638;2024-03-08T13:07:37;22.95;;;12.68;;
81320;SDS011;70785;52.570;5.638;2024-03-08T13:10:04;24.55;;;13.77;;
81320;SDS011;70785;52.570;5.638;2024-03-08T13:12:31;19.58;;;12.57;;
81320;SDS011;70785;52.570;5.638;2024-03-08T13:14:57;23.45;;;13.57;;
81320;SDS011;70785;52.570;5.638;2024-03-08T13:17:23;21.65;;;11.82;;
81320;SDS011;70785;52.570;5.638;2024-03-08T13:19:49;18.80;;;11.10;;
81320;SDS011;70785;52.570;5.638;2024-03-08T13:22:15;22.85;;;13.30;;
81320;SDS011;70785;52.570;5.638;2024-03-08T13:24:42;19.05;;;14.00;;
81320;SDS011;70785;52.570;5.638;2024-03-08T13:27:10;21.23;;;14.25;;
81320;SDS011;70785;52.570;5.638;2024-03-08T13:29:48;20.23;;;13.52;;
81320;SDS011;70785;52.570;5.638;2024-03-08T13:32:15;23.10;;;12.02;;
81320;SDS011;70785;52.570;5.638;2024-03-08T13:34:41;18.92;;;12.10;;
81320;SDS011;70785;52.570;5.638;2024-03-08T13:37:10;21.85;;;12.40;;
81320;SDS011;70785;52.570;5.638;2024-03-08T13:39:37;20.10;;;13.35;;
81320;SDS011;70785;52.570;5.638;2024-03-08T13:42:10;18.85;;;11.60;;
81320;SDS011;70785;52.570;5.638;2024-03-08T13:44:39;22.25;;;10.57;;
81320;SDS011;70785;52.570;5.638;2024-03-08T13:47:08;22.20;;;12.18;;
81320;SDS011;70785;52.570;5.638;2024-03-08T13:49:37;18.83;;;11.60;;
81320;SDS011;70785;52.570;5.638;2024-03-08T13:52:03;17.65;;;10.68;;
81320;SDS011;70785;52.570;5.638;2024-03-08T13:54:30;19.23;;;11.52;;
81320;SDS011;70785;52.570;5.638;2024-03-08T13:56:57;20.75;;;11.00;;
81320;SDS011;70785;52.570;5.638;2024-03-08T13:59:24;20.10;;;12.52;;
81320;SDS011;70785;52.570;5.638;2024-03-08T14:01:50;19.90;;;13.48;;
81320;SDS011;70785;52.570;5.638;2024-03-08T14:04:16;20.25;;;12.25;;
81320;SDS011;70785;52.570;5.638;2024-03-08T14:06:42;18.73;;;12.52;;
81320;SDS011;70785;52.570;5.638;2024-03-08T14:09:11;22.10;;;11.90;;
81320;SDS011;70785;52.570;5.638;2024-03-08T14:11:42;18.50;;;11.50;;
81320;SDS011;70785;52.570;5.638;2024-03-08T14:14:10;19.17;;;12.45;;
81320;SDS011;70785;52.570;5.638;2024-03-08T14:16:38;21.48;;;12.32;;
81320;SDS011;70785;52.570;5.638;2024-03-08T14:19:05;21.58;;;11.75;;
81320;SDS011;70785;52.570;5.638;2024-03-08T14:24:02;17.55;;;12.27;;
81320;SDS011;70785;52.570;5.638;2024-03-08T14:26:30;19.13;;;12.52;;
81320;SDS011;70785;52.570;5.638;2024-03-08T14:28:56;19.85;;;11.18;;
81320;SDS011;70785;52.570;5.638;2024-03-08T14:31:22;18.83;;;12.38;;
81320;SDS011;70785;52.570;5.638;2024-03-08T14:33:53;21.15;;;12.27;;
81320;SDS011;70785;52.570;5.638;2024-03-08T14:36:20;20.92;;;14.02;;
81320;SDS011;70785;52.570;5.638;2024-03-08T14:38:46;22.42;;;14.45;;
81320;SDS011;70785;52.570;5.638;2024-03-08T14:41:13;20.08;;;13.43;;